sensor_id;sensor_type;location;lat;lon;timestamp;temperature;humidity
67759;SHT31;54562;47.620;18.786;2023-03-01T00:02:37;4.18;65.87
67759;SHT31;54562;47.620;18.786;2023-03-01T00:05:45;4.17;65.87
67759;SHT31;54562;47.620;18.786;2023-03-01T00:08:54;4.18;66.21
67759;SHT31;54562;47.620;18.786;2023-03-01T00:12:02;4.16;66.69
67759;SHT31;54562;47.620;18.786;2023-03-01T00:15:11;4.16;66.78
67759;SHT31;54562;47.620;18.786;2023-03-01T00:18:19;4.15;66.52
67759;SHT31;54562;47.620;18.786;2023-03-01T00:21:28;4.14;66.63
67759;SHT31;54562;47.620;18.786;2023-03-01T00:24:36;4.15;67.11
67759;SHT31;54562;47.620;18.786;2023-03-01T00:27:44;4.15;66.89
67759;SHT31;54562;47.620;18.786;2023-03-01T00:30:54;4.16;66.82
67759;SHT31;54562;47.620;18.786;2023-03-01T00:34:06;4.16;67.07
67759;SHT31;54562;47.620;18.786;2023-03-01T00:37:15;4.17;67.38
67759;SHT31;54562;47.620;18.786;2023-03-01T00:40:23;4.15;67.29
67759;SHT31;54562;47.620;18.786;2023-03-01T00:43:32;4.14;67.45
67759;SHT31;54562;47.620;18.786;2023-03-01T00:46:40;4.12;67.39
67759;SHT31;54562;47.620;18.786;2023-03-01T00:49:48;4.10;67.58
67759;SHT31;54562;47.620;18.786;2023-03-01T00:52:56;4.09;67.72
67759;SHT31;54562;47.620;18.786;2023-03-01T00:56:05;4.07;67.40
67759;SHT31;54562;47.620;18.786;2023-03-01T00:59:16;4.07;67.41
67759;SHT31;54562;47.620;18.786;2023-03-01T01:02:24;4.07;67.67
67759;SHT31;54562;47.620;18.786;2023-03-01T01:05:33;4.07;68.05
67759;SHT31;54562;47.620;18.786;2023-03-01T01:08:41;4.10;67.88
67759;SHT31;54562;47.620;18.786;2023-03-01T01:11:48;4.09;68.05
67759;SHT31;54562;47.620;18.786;2023-03-01T01:14:57;4.08;67.94
67759;SHT31;54562;47.620;18.786;2023-03-01T01:18:05;4.09;67.63
67759;SHT31;54562;47.620;18.786;2023-03-01T01:21:13;4.09;67.35
67759;SHT31;54562;47.620;18.786;2023-03-01T01:24:24;4.09;67.16
67759;SHT31;54562;47.620;18.786;2023-03-01T01:27:32;4.10;67.15
67759;SHT31;54562;47.620;18.786;2023-03-01T01:30:40;4.10;67.20
67759;SHT31;54562;47.620;18.786;2023-03-01T01:33:50;4.10;67.09
67759;SHT31;54562;47.620;18.786;2023-03-01T01:36:59;4.08;66.76
67759;SHT31;54562;47.620;18.786;2023-03-01T01:40:11;4.04;66.72
67759;SHT31;54562;47.620;18.786;2023-03-01T01:43:21;3.97;66.94
67759;SHT31;54562;47.620;18.786;2023-03-01T01:46:33;3.92;66.97
67759;SHT31;54562;47.620;18.786;2023-03-01T01:49:46;3.87;67.12
67759;SHT31;54562;47.620;18.786;2023-03-01T01:52:56;3.82;67.52
67759;SHT31;54562;47.620;18.786;2023-03-01T01:56:04;3.78;67.77
67759;SHT31;54562;47.620;18.786;2023-03-01T01:59:17;3.76;67.93
67759;SHT31;54562;47.620;18.786;2023-03-01T02:02:27;3.72;68.02
67759;SHT31;54562;47.620;18.786;2023-03-01T02:05:36;3.71;67.97
67759;SHT31;54562;47.620;18.786;2023-03-01T02:08:59;3.68;68.09
67759;SHT31;54562;47.620;18.786;2023-03-01T02:12:12;3.68;68.25
67759;SHT31;54562;47.620;18.786;2023-03-01T02:15:21;3.71;68.24
67759;SHT31;54562;47.620;18.786;2023-03-01T02:18:30;3.70;68.29
67759;SHT31;54562;47.620;18.786;2023-03-01T02:21:41;3.69;68.35
67759;SHT31;54562;47.620;18.786;2023-03-01T02:25:03;3.69;68.44
67759;SHT31;54562;47.620;18.786;2023-03-01T02:28:27;3.68;68.62
67759;SHT31;54562;47.620;18.786;2023-03-01T02:31:38;3.67;68.71
67759;SHT31;54562;47.620;18.786;2023-03-01T02:34:46;3.64;68.86
67759;SHT31;54562;47.620;18.786;2023-03-01T02:37:55;3.63;68.88
67759;SHT31;54562;47.620;18.786;2023-03-01T02:41:04;3.63;69.02
67759;SHT31;54562;47.620;18.786;2023-03-01T02:44:15;3.62;69.12
67759;SHT31;54562;47.620;18.786;2023-03-01T02:47:24;3.59;69.26
67759;SHT31;54562;47.620;18.786;2023-03-01T02:50:43;3.57;69.21
67759;SHT31;54562;47.620;18.786;2023-03-01T02:54:10;3.52;69.32
67759;SHT31;54562;47.620;18.786;2023-03-01T02:57:29;3.47;69.35
67759;SHT31;54562;47.620;18.786;2023-03-01T03:00:40;3.42;69.40
67759;SHT31;54562;47.620;18.786;2023-03-01T03:03:49;3.38;69.47
67759;SHT31;54562;47.620;18.786;2023-03-01T03:06:58;3.34;69.50
67759;SHT31;54562;47.620;18.786;2023-03-01T03:10:08;3.32;69.69
67759;SHT31;54562;47.620;18.786;2023-03-01T03:13:22;3.32;69.74
67759;SHT31;54562;47.620;18.786;2023-03-01T03:16:31;3.32;69.80
67759;SHT31;54562;47.620;18.786;2023-03-01T03:19:39;3.31;69.95
67759;SHT31;54562;47.620;18.786;2023-03-01T03:22:48;3.30;70.10
67759;SHT31;54562;47.620;18.786;2023-03-01T03:25:59;3.28;70.21
67759;SHT31;54562;47.620;18.786;2023-03-01T03:29:08;3.27;70.30
67759;SHT31;54562;47.620;18.786;2023-03-01T03:32:16;3.27;70.42
67759;SHT31;54562;47.620;18.786;2023-03-01T03:35:25;3.27;70.36
67759;SHT31;54562;47.620;18.786;2023-03-01T03:38:35;3.26;70.53
67759;SHT31;54562;47.620;18.786;2023-03-01T03:41:44;3.25;70.58
67759;SHT31;54562;47.620;18.786;2023-03-01T03:44:51;3.25;70.73
67759;SHT31;54562;47.620;18.786;2023-03-01T03:48:00;3.26;70.81
67759;SHT31;54562;47.620;18.786;2023-03-01T03:51:11;3.26;70.92
67759;SHT31;54562;47.620;18.786;2023-03-01T03:54:21;3.27;70.97
67759;SHT31;54562;47.620;18.786;2023-03-01T03:57:28;3.29;71.02
67759;SHT31;54562;47.620;18.786;2023-03-01T04:00:37;3.33;71.04
67759;SHT31;54562;47.620;18.786;2023-03-01T04:03:47;3.37;71.19
67759;SHT31;54562;47.620;18.786;2023-03-01T04:06:57;3.39;71.13
67759;SHT31;54562;47.620;18.786;2023-03-01T04:10:06;3.39;71.15
67759;SHT31;54562;47.620;18.786;2023-03-01T04:13:21;3.38;71.20
67759;SHT31;54562;47.620;18.786;2023-03-01T04:16:30;3.39;71.24
67759;SHT31;54562;47.620;18.786;2023-03-01T04:19:38;3.40;71.22
67759;SHT31;54562;47.620;18.786;2023-03-01T04:22:47;3.42;71.18
67759;SHT31;54562;47.620;18.786;2023-03-01T04:25:56;3.43;71.18
67759;SHT31;54562;47.620;18.786;2023-03-01T04:29:05;3.44;71.10
67759;SHT31;54562;47.620;18.786;2023-03-01T04:32:12;3.46;71.12
67759;SHT31;54562;47.620;18.786;2023-03-01T04:35:22;3.47;71.19
67759;SHT31;54562;47.620;18.786;2023-03-01T04:38:30;3.48;71.18
67759;SHT31;54562;47.620;18.786;2023-03-01T04:41:40;3.50;71.07
67759;SHT31;54562;47.620;18.786;2023-03-01T04:44:49;3.52;71.16
67759;SHT31;54562;47.620;18.786;2023-03-01T04:47:57;3.56;71.32
67759;SHT31;54562;47.620;18.786;2023-03-01T04:51:05;3.57;71.12
67759;SHT31;54562;47.620;18.786;2023-03-01T04:54:16;3.58;71.13
67759;SHT31;54562;47.620;18.786;2023-03-01T04:57:25;3.59;71.12
67759;SHT31;54562;47.620;18.786;2023-03-01T05:00:33;3.61;71.21
67759;SHT31;54562;47.620;18.786;2023-03-01T05:03:43;3.63;71.19
67759;SHT31;54562;47.620;18.786;2023-03-01T05:06:54;3.63;71.19
67759;SHT31;54562;47.620;18.786;2023-03-01T05:10:02;3.63;71.06
67759;SHT31;54562;47.620;18.786;2023-03-01T05:13:13;3.62;71.10
67759;SHT31;54562;47.620;18.786;2023-03-01T05:16:25;3.64;71.20
67759;SHT31;54562;47.620;18.786;2023-03-01T05:19:36;3.62;71.06
67759;SHT31;54562;47.620;18.786;2023-03-01T05:22:45;3.63;71.10
67759;SHT31;54562;47.620;18.786;2023-03-01T05:25:54;3.64;71.11
67759;SHT31;54562;47.620;18.786;2023-03-01T05:29:09;3.64;71.17
67759;SHT31;54562;47.620;18.786;2023-03-01T05:32:17;3.64;71.10
67759;SHT31;54562;47.620;18.786;2023-03-01T05:35:25;3.62;71.13
67759;SHT31;54562;47.620;18.786;2023-03-01T05:38:36;3.61;71.25
67759;SHT31;54562;47.620;18.786;2023-03-01T05:41:44;3.62;71.14
67759;SHT31;54562;47.620;18.786;2023-03-01T05:44:52;3.62;71.08
67759;SHT31;54562;47.620;18.786;2023-03-01T05:48:00;3.64;71.03
67759;SHT31;54562;47.620;18.786;2023-03-01T05:51:09;3.64;71.08
67759;SHT31;54562;47.620;18.786;2023-03-01T05:54:17;3.64;71.11
67759;SHT31;54562;47.620;18.786;2023-03-01T05:57:29;3.65;71.20
67759;SHT31;54562;47.620;18.786;2023-03-01T06:00:37;3.65;71.34
67759;SHT31;54562;47.620;18.786;2023-03-01T06:03:45;3.66;71.36
67759;SHT31;54562;47.620;18.786;2023-03-01T06:06:54;3.69;71.30
67759;SHT31;54562;47.620;18.786;2023-03-01T06:10:02;3.70;71.37
67759;SHT31;54562;47.620;18.786;2023-03-01T06:13:13;3.68;71.29
67759;SHT31;54562;47.620;18.786;2023-03-01T06:16:21;3.65;71.53
67759;SHT31;54562;47.620;18.786;2023-03-01T06:19:29;3.64;71.74
67759;SHT31;54562;47.620;18.786;2023-03-01T06:22:37;3.62;71.87
67759;SHT31;54562;47.620;18.786;2023-03-01T06:25:46;3.60;71.93
67759;SHT31;54562;47.620;18.786;2023-03-01T06:28:54;3.61;71.88
67759;SHT31;54562;47.620;18.786;2023-03-01T06:32:03;3.61;71.88
67759;SHT31;54562;47.620;18.786;2023-03-01T06:35:13;3.63;71.78
67759;SHT31;54562;47.620;18.786;2023-03-01T06:38:23;3.64;71.80
67759;SHT31;54562;47.620;18.786;2023-03-01T06:41:31;3.67;71.89
67759;SHT31;54562;47.620;18.786;2023-03-01T06:44:41;3.69;71.88
67759;SHT31;54562;47.620;18.786;2023-03-01T06:47:50;3.71;71.76
67759;SHT31;54562;47.620;18.786;2023-03-01T06:51:05;3.71;71.62
67759;SHT31;54562;47.620;18.786;2023-03-01T06:54:13;3.71;71.83
67759;SHT31;54562;47.620;18.786;2023-03-01T06:57:22;3.73;71.93
67759;SHT31;54562;47.620;18.786;2023-03-01T07:00:30;3.75;71.89
67759;SHT31;54562;47.620;18.786;2023-03-01T07:03:38;3.76;71.96
67759;SHT31;54562;47.620;18.786;2023-03-01T07:06:47;3.79;71.94
67759;SHT31;54562;47.620;18.786;2023-03-01T07:09:58;3.82;71.76
67759;SHT31;54562;47.620;18.786;2023-03-01T07:13:06;3.87;71.73
67759;SHT31;54562;47.620;18.786;2023-03-01T07:16:15;3.93;71.64
67759;SHT31;54562;47.620;18.786;2023-03-01T07:19:23;4.01;71.54
67759;SHT31;54562;47.620;18.786;2023-03-01T07:22:31;4.08;71.58
67759;SHT31;54562;47.620;18.786;2023-03-01T07:25:40;4.16;71.43
67759;SHT31;54562;47.620;18.786;2023-03-01T07:28:47;4.24;70.96
67759;SHT31;54562;47.620;18.786;2023-03-01T07:31:56;4.31;70.52
67759;SHT31;54562;47.620;18.786;2023-03-01T07:35:06;4.39;70.30
67759;SHT31;54562;47.620;18.786;2023-03-01T07:38:13;4.46;70.13
67759;SHT31;54562;47.620;18.786;2023-03-01T07:41:21;4.52;69.65
67759;SHT31;54562;47.620;18.786;2023-03-01T07:44:29;4.58;69.58
67759;SHT31;54562;47.620;18.786;2023-03-01T07:47:37;4.67;69.32
67759;SHT31;54562;47.620;18.786;2023-03-01T07:50:46;4.76;69.09
67759;SHT31;54562;47.620;18.786;2023-03-01T07:53:54;4.83;68.85
67759;SHT31;54562;47.620;18.786;2023-03-01T07:57:03;4.91;68.70
67759;SHT31;54562;47.620;18.786;2023-03-01T08:00:11;4.99;68.70
67759;SHT31;54562;47.620;18.786;2023-03-01T08:03:21;5.09;68.33
67759;SHT31;54562;47.620;18.786;2023-03-01T08:06:29;5.19;68.01
67759;SHT31;54562;47.620;18.786;2023-03-01T08:09:38;5.28;67.89
67759;SHT31;54562;47.620;18.786;2023-03-01T08:12:46;5.38;67.43
67759;SHT31;54562;47.620;18.786;2023-03-01T08:16:01;5.49;67.36
67759;SHT31;54562;47.620;18.786;2023-03-01T08:19:11;5.61;67.04
67759;SHT31;54562;47.620;18.786;2023-03-01T08:22:20;5.70;66.68
67759;SHT31;54562;47.620;18.786;2023-03-01T08:25:28;5.76;66.45
67759;SHT31;54562;47.620;18.786;2023-03-01T08:28:35;5.82;66.18
67759;SHT31;54562;47.620;18.786;2023-03-01T08:31:44;5.91;65.72
67759;SHT31;54562;47.620;18.786;2023-03-01T08:34:53;5.99;65.54
67759;SHT31;54562;47.620;18.786;2023-03-01T08:38:01;6.10;65.46
67759;SHT31;54562;47.620;18.786;2023-03-01T08:41:09;6.22;65.10
67759;SHT31;54562;47.620;18.786;2023-03-01T08:44:17;6.32;65.20
67759;SHT31;54562;47.620;18.786;2023-03-01T08:47:26;6.43;64.78
67759;SHT31;54562;47.620;18.786;2023-03-01T08:50:34;6.53;64.55
67759;SHT31;54562;47.620;18.786;2023-03-01T08:53:44;6.64;64.16
67759;SHT31;54562;47.620;18.786;2023-03-01T08:56:54;6.72;64.02
67759;SHT31;54562;47.620;18.786;2023-03-01T09:00:03;6.83;63.84
67759;SHT31;54562;47.620;18.786;2023-03-01T09:03:18;6.94;63.46
67759;SHT31;54562;47.620;18.786;2023-03-01T09:06:26;7.05;63.28
67759;SHT31;54562;47.620;18.786;2023-03-01T09:09:37;7.17;63.25
67759;SHT31;54562;47.620;18.786;2023-03-01T09:12:45;7.34;63.03
67759;SHT31;54562;47.620;18.786;2023-03-01T09:15:53;7.50;62.47
67759;SHT31;54562;47.620;18.786;2023-03-01T09:19:02;7.62;62.33
67759;SHT31;54562;47.620;18.786;2023-03-01T09:22:10;7.80;62.22
67759;SHT31;54562;47.620;18.786;2023-03-01T09:25:18;7.97;61.87
67759;SHT31;54562;47.620;18.786;2023-03-01T09:28:27;8.19;61.91
67759;SHT31;54562;47.620;18.786;2023-03-01T09:31:35;8.33;61.14
67759;SHT31;54562;47.620;18.786;2023-03-01T09:34:44;8.40;60.92
67759;SHT31;54562;47.620;18.786;2023-03-01T09:38:10;8.49;60.63
67759;SHT31;54562;47.620;18.786;2023-03-01T09:41:33;8.55;60.39
67759;SHT31;54562;47.620;18.786;2023-03-01T09:44:52;8.59;60.16
67759;SHT31;54562;47.620;18.786;2023-03-01T09:48:07;8.68;60.27
67759;SHT31;54562;47.620;18.786;2023-03-01T09:51:26;8.78;60.21
67759;SHT31;54562;47.620;18.786;2023-03-01T09:54:37;8.88;59.92
67759;SHT31;54562;47.620;18.786;2023-03-01T09:57:47;9.00;59.97
67759;SHT31;54562;47.620;18.786;2023-03-01T10:01:02;9.20;59.98
67759;SHT31;54562;47.620;18.786;2023-03-01T10:04:31;9.31;59.91
67759;SHT31;54562;47.620;18.786;2023-03-01T10:07:54;9.51;59.82
67759;SHT31;54562;47.620;18.786;2023-03-01T10:11:29;9.84;59.50
67759;SHT31;54562;47.620;18.786;2023-03-01T10:14:43;10.14;58.54
67759;SHT31;54562;47.620;18.786;2023-03-01T10:18:00;10.33;57.14
67759;SHT31;54562;47.620;18.786;2023-03-01T10:21:15;10.48;57.68
67759;SHT31;54562;47.620;18.786;2023-03-01T10:24:25;10.74;57.31
67759;SHT31;54562;47.620;18.786;2023-03-01T10:27:41;11.01;56.26
67759;SHT31;54562;47.620;18.786;2023-03-01T10:30:58;11.23;56.02
67759;SHT31;54562;47.620;18.786;2023-03-01T10:34:11;11.30;54.55
67759;SHT31;54562;47.620;18.786;2023-03-01T10:37:23;11.35;54.81
67759;SHT31;54562;47.620;18.786;2023-03-01T10:40:33;11.48;54.22
67759;SHT31;54562;47.620;18.786;2023-03-01T10:43:56;11.63;53.86
67759;SHT31;54562;47.620;18.786;2023-03-01T10:47:09;11.66;53.25
67759;SHT31;54562;47.620;18.786;2023-03-01T10:50:20;11.77;53.95
67759;SHT31;54562;47.620;18.786;2023-03-01T10:53:29;12.02;54.38
67759;SHT31;54562;47.620;18.786;2023-03-01T10:56:51;12.28;53.75
67759;SHT31;54562;47.620;18.786;2023-03-01T11:00:15;12.47;52.58
67759;SHT31;54562;47.620;18.786;2023-03-01T11:03:28;12.50;51.63
67759;SHT31;54562;47.620;18.786;2023-03-01T11:06:38;12.48;52.27
67759;SHT31;54562;47.620;18.786;2023-03-01T11:09:47;12.55;51.88
67759;SHT31;54562;47.620;18.786;2023-03-01T11:13:07;12.59;51.68
67759;SHT31;54562;47.620;18.786;2023-03-01T11:16:28;12.47;51.68
67759;SHT31;54562;47.620;18.786;2023-03-01T11:19:40;12.24;51.62
67759;SHT31;54562;47.620;18.786;2023-03-01T11:23:08;12.00;52.52
67759;SHT31;54562;47.620;18.786;2023-03-01T11:26:19;11.84;52.58
67759;SHT31;54562;47.620;18.786;2023-03-01T11:29:30;11.66;52.60
67759;SHT31;54562;47.620;18.786;2023-03-01T11:32:53;11.60;52.72
67759;SHT31;54562;47.620;18.786;2023-03-01T11:36:18;11.59;53.21
67759;SHT31;54562;47.620;18.786;2023-03-01T11:39:37;11.54;53.20
67759;SHT31;54562;47.620;18.786;2023-03-01T11:42:57;11.50;53.36
67759;SHT31;54562;47.620;18.786;2023-03-01T11:50:15;11.41;53.58
67759;SHT31;54562;47.620;18.786;2023-03-01T11:53:48;11.32;53.66
67759;SHT31;54562;47.620;18.786;2023-03-01T11:57:11;11.24;53.91
67759;SHT31;54562;47.620;18.786;2023-03-01T12:00:47;11.13;53.90
67759;SHT31;54562;47.620;18.786;2023-03-01T12:04:29;11.00;54.41
67759;SHT31;54562;47.620;18.786;2023-03-01T12:08:14;10.94;54.65
67759;SHT31;54562;47.620;18.786;2023-03-01T12:11:34;10.96;54.77
67759;SHT31;54562;47.620;18.786;2023-03-01T12:22:55;10.90;54.65
67759;SHT31;54562;47.620;18.786;2023-03-01T12:26:30;10.85;54.78
67759;SHT31;54562;47.620;18.786;2023-03-01T12:29:48;10.85;54.81
67759;SHT31;54562;47.620;18.786;2023-03-01T12:33:14;10.86;54.56
67759;SHT31;54562;47.620;18.786;2023-03-01T12:40:25;10.96;54.77
67759;SHT31;54562;47.620;18.786;2023-03-01T12:44:11;11.09;54.88
67759;SHT31;54562;47.620;18.786;2023-03-01T12:47:50;11.22;54.70
67759;SHT31;54562;47.620;18.786;2023-03-01T12:51:22;11.38;54.58
67759;SHT31;54562;47.620;18.786;2023-03-01T12:54:36;11.55;54.50
67759;SHT31;54562;47.620;18.786;2023-03-01T12:57:46;11.74;54.64
67759;SHT31;54562;47.620;18.786;2023-03-01T13:01:08;11.90;54.09
67759;SHT31;54562;47.620;18.786;2023-03-01T13:04:30;12.06;54.58
67759;SHT31;54562;47.620;18.786;2023-03-01T13:07:58;12.10;53.21
67759;SHT31;54562;47.620;18.786;2023-03-01T13:11:17;12.02;53.30
67759;SHT31;54562;47.620;18.786;2023-03-01T13:14:46;11.99;52.96
67759;SHT31;54562;47.620;18.786;2023-03-01T13:17:59;11.95;52.76
67759;SHT31;54562;47.620;18.786;2023-03-01T13:21:31;11.81;52.68
67759;SHT31;54562;47.620;18.786;2023-03-01T13:24:40;11.73;52.82
67759;SHT31;54562;47.620;18.786;2023-03-01T13:27:49;11.86;53.44
67759;SHT31;54562;47.620;18.786;2023-03-01T13:38:56;13.37;53.31
67759;SHT31;54562;47.620;18.786;2023-03-01T13:42:25;13.71;52.09
67759;SHT31;54562;47.620;18.786;2023-03-01T13:45:46;14.03;50.93
67759;SHT31;54562;47.620;18.786;2023-03-01T13:48:56;14.16;49.85
67759;SHT31;54562;47.620;18.786;2023-03-01T13:52:04;14.13;50.07
67759;SHT31;54562;47.620;18.786;2023-03-01T13:55:36;14.11;50.44
67759;SHT31;54562;47.620;18.786;2023-03-01T13:58:50;13.99;49.69
67759;SHT31;54562;47.620;18.786;2023-03-01T14:02:10;13.77;50.38
67759;SHT31;54562;47.620;18.786;2023-03-01T14:05:22;13.88;50.30
67759;SHT31;54562;47.620;18.786;2023-03-01T14:08:31;14.11;50.55
67759;SHT31;54562;47.620;18.786;2023-03-01T14:15:22;14.47;48.76
67759;SHT31;54562;47.620;18.786;2023-03-01T14:18:40;14.52;49.53
67759;SHT31;54562;47.620;18.786;2023-03-01T14:22:01;14.67;48.80
67759;SHT31;54562;47.620;18.786;2023-03-01T14:25:22;14.75;48.35
67759;SHT31;54562;47.620;18.786;2023-03-01T14:28:34;14.78;48.60
67759;SHT31;54562;47.620;18.786;2023-03-01T14:31:46;14.83;48.37
67759;SHT31;54562;47.620;18.786;2023-03-01T14:34:56;14.81;48.09
67759;SHT31;54562;47.620;18.786;2023-03-01T14:38:05;14.76;48.50
67759;SHT31;54562;47.620;18.786;2023-03-01T14:41:26;14.74;48.82
67759;SHT31;54562;47.620;18.786;2023-03-01T14:44:40;14.64;48.90
67759;SHT31;54562;47.620;18.786;2023-03-01T14:47:50;14.49;49.02
67759;SHT31;54562;47.620;18.786;2023-03-01T14:51:00;14.42;49.20
67759;SHT31;54562;47.620;18.786;2023-03-01T14:54:20;14.31;49.21
67759;SHT31;54562;47.620;18.786;2023-03-01T14:57:32;14.11;49.41
67759;SHT31;54562;47.620;18.786;2023-03-01T15:00:42;13.99;49.61
67759;SHT31;54562;47.620;18.786;2023-03-01T15:03:58;13.80;49.57
67759;SHT31;54562;47.620;18.786;2023-03-01T15:07:09;13.58;49.33
67759;SHT31;54562;47.620;18.786;2023-03-01T15:10:21;13.33;49.53
67759;SHT31;54562;47.620;18.786;2023-03-01T15:13:33;13.15;49.87
67759;SHT31;54562;47.620;18.786;2023-03-01T15:16:42;13.03;50.39
67759;SHT31;54562;47.620;18.786;2023-03-01T15:19:52;12.87;50.53
67759;SHT31;54562;47.620;18.786;2023-03-01T15:23:01;12.70;50.55
67759;SHT31;54562;47.620;18.786;2023-03-01T15:26:20;12.46;50.55
67759;SHT31;54562;47.620;18.786;2023-03-01T15:29:34;12.26;51.13
67759;SHT31;54562;47.620;18.786;2023-03-01T15:32:44;12.09;51.38
67759;SHT31;54562;47.620;18.786;2023-03-01T15:35:52;11.95;51.68
67759;SHT31;54562;47.620;18.786;2023-03-01T15:39:02;11.75;52.19
67759;SHT31;54562;47.620;18.786;2023-03-01T15:42:36;11.52;52.43
67759;SHT31;54562;47.620;18.786;2023-03-01T15:45:44;11.30;52.63
67759;SHT31;54562;47.620;18.786;2023-03-01T15:49:03;11.07;53.23
67759;SHT31;54562;47.620;18.786;2023-03-01T15:52:33;10.91;53.82
67759;SHT31;54562;47.620;18.786;2023-03-01T15:55:43;10.73;53.92
67759;SHT31;54562;47.620;18.786;2023-03-01T15:58:56;10.52;54.33
67759;SHT31;54562;47.620;18.786;2023-03-01T16:02:08;10.32;54.68
67759;SHT31;54562;47.620;18.786;2023-03-01T16:05:22;10.12;55.13
67759;SHT31;54562;47.620;18.786;2023-03-01T16:08:33;9.95;55.52
67759;SHT31;54562;47.620;18.786;2023-03-01T16:11:42;9.79;55.89
67759;SHT31;54562;47.620;18.786;2023-03-01T16:14:50;9.60;56.38
67759;SHT31;54562;47.620;18.786;2023-03-01T16:18:00;9.43;56.77
67759;SHT31;54562;47.620;18.786;2023-03-01T16:21:18;9.27;57.11
67759;SHT31;54562;47.620;18.786;2023-03-01T16:24:28;9.14;57.27
67759;SHT31;54562;47.620;18.786;2023-03-01T16:27:41;9.06;57.50
67759;SHT31;54562;47.620;18.786;2023-03-01T16:30:51;8.97;57.33
67759;SHT31;54562;47.620;18.786;2023-03-01T16:34:00;8.87;57.27
67759;SHT31;54562;47.620;18.786;2023-03-01T16:37:08;8.75;57.32
67759;SHT31;54562;47.620;18.786;2023-03-01T16:40:17;8.68;57.67
67759;SHT31;54562;47.620;18.786;2023-03-01T16:43:28;8.57;58.18
67759;SHT31;54562;47.620;18.786;2023-03-01T16:46:37;8.43;58.61
67759;SHT31;54562;47.620;18.786;2023-03-01T16:49:47;8.27;59.03
67759;SHT31;54562;47.620;18.786;2023-03-01T16:53:00;8.14;59.47
67759;SHT31;54562;47.620;18.786;2023-03-01T16:56:09;8.06;59.61
67759;SHT31;54562;47.620;18.786;2023-03-01T16:59:19;7.97;60.32
67759;SHT31;54562;47.620;18.786;2023-03-01T17:02:27;7.89;60.59
67759;SHT31;54562;47.620;18.786;2023-03-01T17:05:35;7.79;60.42
67759;SHT31;54562;47.620;18.786;2023-03-01T17:08:45;7.70;60.96
67759;SHT31;54562;47.620;18.786;2023-03-01T17:11:54;7.58;61.10
67759;SHT31;54562;47.620;18.786;2023-03-01T17:15:03;7.47;61.18
67759;SHT31;54562;47.620;18.786;2023-03-01T17:18:15;7.38;61.52
67759;SHT31;54562;47.620;18.786;2023-03-01T17:21:23;7.29;61.47
67759;SHT31;54562;47.620;18.786;2023-03-01T17:24:32;7.21;61.64
67759;SHT31;54562;47.620;18.786;2023-03-01T17:27:42;7.14;61.88
67759;SHT31;54562;47.620;18.786;2023-03-01T17:30:49;7.07;61.83
67759;SHT31;54562;47.620;18.786;2023-03-01T17:33:58;7.04;61.98
67759;SHT31;54562;47.620;18.786;2023-03-01T17:37:07;6.98;62.02
67759;SHT31;54562;47.620;18.786;2023-03-01T17:40:14;6.94;62.30
67759;SHT31;54562;47.620;18.786;2023-03-01T17:43:23;6.90;62.53
67759;SHT31;54562;47.620;18.786;2023-03-01T17:46:31;6.87;62.57
67759;SHT31;54562;47.620;18.786;2023-03-01T17:49:39;6.85;62.64
67759;SHT31;54562;47.620;18.786;2023-03-01T17:52:47;6.81;62.83
67759;SHT31;54562;47.620;18.786;2023-03-01T17:55:59;6.81;62.83
67759;SHT31;54562;47.620;18.786;2023-03-01T17:59:13;6.78;62.91
67759;SHT31;54562;47.620;18.786;2023-03-01T18:02:21;6.76;63.17
67759;SHT31;54562;47.620;18.786;2023-03-01T18:05:32;6.70;63.37
67759;SHT31;54562;47.620;18.786;2023-03-01T18:08:41;6.67;63.42
67759;SHT31;54562;47.620;18.786;2023-03-01T18:11:51;6.66;63.47
67759;SHT31;54562;47.620;18.786;2023-03-01T18:14:59;6.64;63.47
67759;SHT31;54562;47.620;18.786;2023-03-01T18:18:08;6.63;63.53
67759;SHT31;54562;47.620;18.786;2023-03-01T18:21:16;6.60;63.63
67759;SHT31;54562;47.620;18.786;2023-03-01T18:24:25;6.57;63.73
67759;SHT31;54562;47.620;18.786;2023-03-01T18:27:34;6.55;63.92
67759;SHT31;54562;47.620;18.786;2023-03-01T18:30:42;6.52;63.91
67759;SHT31;54562;47.620;18.786;2023-03-01T18:33:53;6.48;64.03
67759;SHT31;54562;47.620;18.786;2023-03-01T18:37:02;6.45;64.23
67759;SHT31;54562;47.620;18.786;2023-03-01T18:40:12;6.42;64.31
67759;SHT31;54562;47.620;18.786;2023-03-01T18:43:20;6.40;64.39
67759;SHT31;54562;47.620;18.786;2023-03-01T18:46:31;6.37;64.57
67759;SHT31;54562;47.620;18.786;2023-03-01T18:49:42;6.36;64.64
67759;SHT31;54562;47.620;18.786;2023-03-01T18:52:50;6.32;64.70
67759;SHT31;54562;47.620;18.786;2023-03-01T18:55:59;6.29;64.91
67759;SHT31;54562;47.620;18.786;2023-03-01T18:59:08;6.26;65.03
67759;SHT31;54562;47.620;18.786;2023-03-01T19:02:16;6.21;65.10
67759;SHT31;54562;47.620;18.786;2023-03-01T19:05:24;6.19;65.08
67759;SHT31;54562;47.620;18.786;2023-03-01T19:08:33;6.14;64.66
67759;SHT31;54562;47.620;18.786;2023-03-01T19:11:42;5.97;64.13
67759;SHT31;54562;47.620;18.786;2023-03-01T19:14:51;5.80;64.61
67759;SHT31;54562;47.620;18.786;2023-03-01T19:17:59;5.66;64.86
67759;SHT31;54562;47.620;18.786;2023-03-01T19:21:08;5.51;64.52
67759;SHT31;54562;47.620;18.786;2023-03-01T19:24:17;5.31;64.64
67759;SHT31;54562;47.620;18.786;2023-03-01T19:27:25;5.17;65.38
67759;SHT31;54562;47.620;18.786;2023-03-01T19:30:34;5.13;66.45
67759;SHT31;54562;47.620;18.786;2023-03-01T19:33:43;5.12;66.94
67759;SHT31;54562;47.620;18.786;2023-03-01T19:36:55;5.13;67.22
67759;SHT31;54562;47.620;18.786;2023-03-01T19:40:03;5.15;67.36
67759;SHT31;54562;47.620;18.786;2023-03-01T19:43:14;5.17;67.35
67759;SHT31;54562;47.620;18.786;2023-03-01T19:46:22;5.19;67.30
67759;SHT31;54562;47.620;18.786;2023-03-01T19:49:31;5.24;67.28
67759;SHT31;54562;47.620;18.786;2023-03-01T19:52:40;5.26;67.28
67759;SHT31;54562;47.620;18.786;2023-03-01T19:55:48;5.28;67.33
67759;SHT31;54562;47.620;18.786;2023-03-01T19:59:03;5.27;66.76
67759;SHT31;54562;47.620;18.786;2023-03-01T20:02:13;5.15;66.38
67759;SHT31;54562;47.620;18.786;2023-03-01T20:05:22;5.04;66.74
67759;SHT31;54562;47.620;18.786;2023-03-01T20:08:30;4.95;66.84
67759;SHT31;54562;47.620;18.786;2023-03-01T20:11:39;4.88;67.35
67759;SHT31;54562;47.620;18.786;2023-03-01T20:14:47;4.80;67.25
67759;SHT31;54562;47.620;18.786;2023-03-01T20:17:57;4.70;67.39
67759;SHT31;54562;47.620;18.786;2023-03-01T20:21:05;4.64;67.90
67759;SHT31;54562;47.620;18.786;2023-03-01T20:24:26;4.62;68.40
67759;SHT31;54562;47.620;18.786;2023-03-01T20:27:35;4.56;67.84
67759;SHT31;54562;47.620;18.786;2023-03-01T20:30:43;4.49;67.98
67759;SHT31;54562;47.620;18.786;2023-03-01T20:33:53;4.44;68.14
67759;SHT31;54562;47.620;18.786;2023-03-01T20:37:02;4.40;68.27